createdAt,value
2018-10-09T00:01:37.373Z,10.07
2018-10-09T00:04:09.460Z,10.08
2018-10-09T00:06:41.528Z,10.12
2018-10-09T00:09:13.575Z,10.12
2018-10-09T00:11:45.639Z,10.05
2018-10-09T00:14:17.740Z,10.04
2018-10-09T00:16:49.823Z,9.98
2018-10-09T00:19:21.919Z,9.88
2018-10-09T00:21:55.035Z,9.82
2018-10-09T00:24:27.099Z,9.82
2018-10-09T00:27:00.227Z,9.88
2018-10-09T00:29:32.289Z,9.93
2018-10-09T00:32:04.359Z,9.90
2018-10-09T00:34:36.372Z,9.90
2018-10-09T00:37:08.451Z,9.88
2018-10-09T00:39:40.554Z,9.86
2018-10-09T00:42:12.607Z,9.85
2018-10-09T00:44:44.691Z,9.81
2018-10-09T00:47:16.785Z,9.76
2018-10-09T00:49:48.839Z,9.73
2018-10-09T00:52:20.942Z,9.70
2018-10-09T00:54:53.065Z,9.69
2018-10-09T00:57:25.123Z,9.53
2018-10-09T00:59:57.211Z,9.52
2018-10-09T01:02:29.278Z,9.58
2018-10-09T01:05:01.343Z,9.60
2018-10-09T01:07:33.379Z,9.65
2018-10-09T01:10:05.686Z,9.56
2018-10-09T01:12:37.746Z,9.51
2018-10-09T01:15:09.820Z,9.53
2018-10-09T01:17:41.852Z,9.52
2018-10-09T01:20:16.727Z,9.55
2018-10-09T01:22:48.789Z,9.65
2018-10-09T01:25:20.915Z,9.70
2018-10-09T01:27:53.021Z,9.73
2018-10-09T01:30:25.095Z,9.73
2018-10-09T01:32:58.470Z,9.63
2018-10-09T01:35:30.530Z,9.57
2018-10-09T01:38:02.595Z,9.38
2018-10-09T01:40:34.657Z,9.27
2018-10-09T01:43:06.756Z,9.23
2018-10-09T01:45:38.851Z,9.16
2018-10-09T01:48:10.920Z,9.07
2018-10-09T01:50:43.030Z,9.04
2018-10-09T01:53:15.102Z,9.08
2018-10-09T01:55:47.242Z,9.02
2018-10-09T01:58:19.292Z,8.98
2018-10-09T02:00:51.367Z,8.92
2018-10-09T02:03:23.521Z,8.87
2018-10-09T02:05:55.598Z,9.01
2018-10-09T02:08:27.668Z,8.25
2018-10-09T02:10:59.764Z,9.04
2018-10-09T02:13:31.818Z,9.15
2018-10-09T02:16:03.987Z,9.13
2018-10-09T02:18:36.064Z,8.97
2018-10-09T02:21:08.177Z,8.82
2018-10-09T02:23:40.243Z,8.86
2018-10-09T02:26:12.331Z,8.83
2018-10-09T02:28:44.507Z,8.88
2018-10-09T02:31:16.582Z,8.88
2018-10-09T02:33:48.647Z,8.87
2018-10-09T02:36:21.841Z,8.78
2018-10-09T02:38:53.919Z,8.61
2018-10-09T02:41:26.073Z,8.53
2018-10-09T02:43:58.123Z,8.48
2018-10-09T02:46:30.163Z,8.47
2018-10-09T02:49:02.267Z,8.42
2018-10-09T02:51:34.638Z,8.35
2018-10-09T02:54:06.892Z,8.50
2018-10-09T02:56:39.013Z,8.63
2018-10-09T02:59:11.103Z,8.61
2018-10-09T03:01:43.189Z,8.58
2018-10-09T03:04:15.280Z,8.67
2018-10-09T03:06:47.365Z,8.77
2018-10-09T03:09:19.458Z,8.93
2018-10-09T03:11:51.517Z,9.04
2018-10-09T03:14:23.606Z,9.06
2018-10-09T03:16:55.696Z,9.10
2018-10-09T03:19:27.792Z,9.11
2018-10-09T03:21:59.851Z,9.09
2018-10-09T03:24:31.902Z,9.10
2018-10-09T03:27:03.988Z,9.14
2018-10-09T03:29:36.044Z,9.18
2018-10-09T03:32:08.121Z,9.14
2018-10-09T03:34:40.219Z,9.12
2018-10-09T03:37:12.313Z,9.14
2018-10-09T03:39:44.359Z,9.16
2018-10-09T03:42:16.443Z,9.13
2018-10-09T03:44:48.491Z,9.12
2018-10-09T03:47:20.584Z,9.09
2018-10-09T03:49:52.631Z,9.13
2018-10-09T03:52:24.671Z,9.15
2018-10-09T03:54:56.701Z,9.14
2018-10-09T03:57:28.879Z,9.18
2018-10-09T04:00:01.014Z,9.19
2018-10-09T04:02:33.106Z,9.28
2018-10-09T04:05:05.203Z,9.26
2018-10-09T04:07:37.287Z,9.25
2018-10-09T04:10:09.377Z,9.26
2018-10-09T04:12:41.492Z,9.24
2018-10-09T04:15:13.627Z,9.20
2018-10-09T04:17:45.712Z,9.22
2018-10-09T04:20:17.774Z,9.13
2018-10-09T04:22:49.886Z,9.13
2018-10-09T04:25:21.987Z,9.17
2018-10-09T04:27:54.052Z,9.17
2018-10-09T04:30:26.121Z,9.21
2018-10-09T04:32:59.272Z,9.22
2018-10-09T04:35:31.367Z,9.20
2018-10-09T04:38:03.409Z,9.17
2018-10-09T04:40:35.476Z,9.14
2018-10-09T04:43:07.584Z,9.05
2018-10-09T04:45:39.682Z,9.04
2018-10-09T04:48:11.706Z,8.97
2018-10-09T04:50:43.779Z,8.99
2018-10-09T04:53:15.875Z,8.92
2018-10-09T04:55:47.944Z,8.97
2018-10-09T04:58:20.011Z,9.05
2018-10-09T05:00:52.266Z,8.98
2018-10-09T05:03:24.264Z,8.94
2018-10-09T05:05:56.319Z,8.92
2018-10-09T05:08:28.466Z,8.91
2018-10-09T05:11:00.583Z,8.91
2018-10-09T05:13:32.752Z,8.91
2018-10-09T05:16:05.044Z,8.93
2018-10-09T05:18:37.147Z,8.98
2018-10-09T05:21:09.234Z,8.99
2018-10-09T05:23:41.324Z,9.03
2018-10-09T05:26:13.391Z,9.00
2018-10-09T05:28:45.427Z,8.95
2018-10-09T05:31:18.632Z,8.83
2018-10-09T05:33:50.715Z,8.90
2018-10-09T05:36:22.782Z,9.02
2018-10-09T05:38:54.893Z,9.08
2018-10-09T05:41:26.965Z,9.11
2018-10-09T05:43:59.124Z,9.16
2018-10-09T05:46:31.167Z,9.24
2018-10-09T05:49:03.259Z,9.27
2018-10-09T05:51:35.386Z,9.33
2018-10-09T05:54:07.495Z,9.25
2018-10-09T05:56:39.575Z,9.19
2018-10-09T05:59:11.676Z,9.19
2018-10-09T06:01:43.759Z,9.11
2018-10-09T06:04:15.900Z,9.19
2018-10-09T06:06:47.987Z,9.25
2018-10-09T06:09:20.109Z,9.19
2018-10-09T06:11:52.223Z,9.29
2018-10-09T06:14:24.412Z,9.32
2018-10-09T06:16:56.548Z,9.44
2018-10-09T06:19:28.655Z,9.54
2018-10-09T06:22:00.787Z,9.62
2018-10-09T06:24:32.897Z,9.62
2018-10-09T06:27:05.034Z,9.74
2018-10-09T06:29:37.107Z,9.84
2018-10-09T06:32:09.174Z,9.94
2018-10-09T06:34:41.267Z,9.87
2018-10-09T06:37:13.376Z,10.03
2018-10-09T06:39:45.527Z,9.66
2018-10-09T06:42:18.675Z,10.34
2018-10-09T06:44:50.756Z,10.39
2018-10-09T06:47:22.869Z,10.47
2018-10-09T06:49:54.917Z,10.53
2018-10-09T06:52:28.027Z,10.56
2018-10-09T06:55:00.142Z,10.75
2018-10-09T06:57:32.247Z,10.65
2018-10-09T07:00:04.528Z,10.63
2018-10-09T07:02:37.066Z,10.67
2018-10-09T07:05:09.115Z,10.66
2018-10-09T07:07:42.244Z,10.63
2018-10-09T07:10:14.339Z,10.53
2018-10-09T07:12:46.545Z,10.61
2018-10-09T07:15:18.627Z,10.70
2018-10-09T07:17:51.748Z,10.76
2018-10-09T07:20:23.857Z,10.64
2018-10-09T07:22:55.922Z,10.90
2018-10-09T07:25:28.033Z,10.75
2018-10-09T07:28:00.243Z,11.02
2018-10-09T07:30:33.382Z,11.22
2018-10-09T07:33:05.779Z,11.35
2018-10-09T07:35:38.428Z,11.52
2018-10-09T07:38:10.510Z,11.77
2018-10-09T07:40:42.617Z,11.97
2018-10-09T07:43:15.683Z,12.21
2018-10-09T07:45:47.786Z,12.25
2018-10-09T07:48:20.977Z,12.62
2018-10-09T07:50:53.018Z,12.70
2018-10-09T07:53:25.074Z,12.77
2018-10-09T07:55:57.188Z,12.83
2018-10-09T07:58:29.259Z,12.63
2018-10-09T08:01:01.356Z,12.82
2018-10-09T08:03:39.435Z,13.13
2018-10-09T08:06:11.460Z,13.07
2018-10-09T08:08:43.591Z,12.97
2018-10-09T08:11:15.663Z,12.79
2018-10-09T08:13:47.868Z,12.53
2018-10-09T08:16:19.968Z,12.54
2018-10-09T08:18:51.959Z,12.56
2018-10-09T08:21:24.056Z,12.81
2018-10-09T08:23:56.147Z,12.73
2018-10-09T08:26:28.213Z,12.64
2018-10-09T08:29:00.244Z,12.66
2018-10-09T08:31:32.291Z,12.92
2018-10-09T08:34:04.363Z,12.80
2018-10-09T08:36:36.440Z,12.67
2018-10-09T08:39:08.544Z,13.04
2018-10-09T08:41:40.676Z,13.25
2018-10-09T08:44:12.720Z,13.09
2018-10-09T08:46:44.833Z,12.92
2018-10-09T08:49:17.115Z,13.27
2018-10-09T08:51:50.088Z,13.25
2018-10-09T08:54:22.157Z,13.01
2018-10-09T08:56:54.325Z,13.12
2018-10-09T08:59:26.394Z,13.07
2018-10-09T09:01:58.554Z,12.89
2018-10-09T09:04:30.595Z,12.96
2018-10-09T09:07:02.658Z,12.99
2018-10-09T09:09:34.826Z,12.99
2018-10-09T09:12:06.840Z,13.29
2018-10-09T09:14:38.893Z,13.30
2018-10-09T09:17:11.001Z,13.53
2018-10-09T09:19:43.088Z,13.97
2018-10-09T09:22:15.149Z,13.84
2018-10-09T09:24:47.162Z,14.22
2018-10-09T09:27:19.390Z,14.03
2018-10-09T09:29:51.321Z,14.45
2018-10-09T09:32:23.479Z,14.81
2018-10-09T09:34:55.553Z,14.63
2018-10-09T09:37:27.604Z,14.78
2018-10-09T09:39:59.692Z,14.84
2018-10-09T09:42:31.752Z,15.03
2018-10-09T09:45:04.183Z,15.31
2018-10-09T09:47:36.291Z,15.49
2018-10-09T09:50:08.373Z,15.29
2018-10-09T09:52:40.427Z,14.91
2018-10-09T09:55:12.499Z,14.92
2018-10-09T09:57:44.559Z,15.12
2018-10-09T10:00:22.419Z,14.60
2018-10-09T10:02:54.467Z,14.96
2018-10-09T10:05:26.548Z,15.50
2018-10-09T10:07:58.640Z,15.55
2018-10-09T10:10:37.394Z,15.66
2018-10-09T10:13:09.485Z,15.52
2018-10-09T10:15:41.564Z,15.55
2018-10-09T10:18:13.663Z,15.63
2018-10-09T10:20:45.683Z,16.09
2018-10-09T10:23:17.847Z,16.27
2018-10-09T10:25:49.912Z,16.77
2018-10-09T10:28:22.016Z,16.43
2018-10-09T10:30:54.063Z,16.50
2018-10-09T10:33:26.127Z,16.56
2018-10-09T10:35:58.176Z,16.47
2018-10-09T10:38:30.245Z,16.86
2018-10-09T10:41:02.275Z,16.48
2018-10-09T10:43:34.298Z,16.64
2018-10-09T10:46:06.658Z,16.81
2018-10-09T10:48:52.177Z,16.95
2018-10-09T10:51:24.289Z,16.35
2018-10-09T10:53:56.722Z,16.38
2018-10-09T10:56:28.930Z,16.86
2018-10-09T10:59:01.012Z,16.93
2018-10-09T11:01:33.146Z,16.77
2018-10-09T11:04:05.184Z,16.70
2018-10-09T11:06:37.679Z,16.83
2018-10-09T11:09:12.024Z,17.40
2018-10-09T11:11:44.199Z,17.91
2018-10-09T11:14:16.276Z,18.12
2018-10-09T11:16:48.340Z,17.84
2018-10-09T11:19:20.390Z,17.44
2018-10-09T11:21:52.420Z,17.43
2018-10-09T11:24:24.506Z,17.66
2018-10-09T11:26:56.545Z,17.40
2018-10-09T11:29:28.628Z,17.90
2018-10-09T11:32:00.725Z,17.95
2018-10-09T11:34:33.088Z,18.64
2018-10-09T11:37:05.411Z,18.85
2018-10-09T11:39:37.465Z,18.29
2018-10-09T11:42:09.572Z,18.78
2018-10-09T11:44:41.660Z,18.91
2018-10-09T11:47:13.792Z,18.91
2018-10-09T11:49:45.800Z,19.19
2018-10-09T11:52:17.955Z,19.34
2018-10-09T11:54:50.023Z,19.05
2018-10-09T11:57:22.064Z,19.11
2018-10-09T11:59:54.301Z,19.59
2018-10-09T12:02:26.365Z,20.06
2018-10-09T12:04:58.433Z,19.96
2018-10-09T12:07:30.496Z,19.85
2018-10-09T12:10:02.588Z,19.73
2018-10-09T12:12:34.640Z,20.23
2018-10-09T12:15:06.751Z,20.17
2018-10-09T12:17:38.829Z,20.09
2018-10-09T12:20:10.924Z,19.90
2018-10-09T12:22:42.980Z,20.10
2018-10-09T12:25:15.148Z,20.05
2018-10-09T12:27:47.340Z,20.29
2018-10-09T12:30:19.451Z,20.18
2018-10-09T12:32:51.579Z,20.08
2018-10-09T12:35:23.595Z,20.42
2018-10-09T12:37:55.640Z,20.10
2018-10-09T12:40:27.679Z,19.82
2018-10-09T12:42:59.697Z,19.79
2018-10-09T12:45:31.740Z,19.91
2018-10-09T12:48:03.816Z,19.67
2018-10-09T12:50:35.868Z,19.62
2018-10-09T12:53:08.006Z,19.97
2018-10-09T12:55:40.038Z,19.42
2018-10-09T12:58:12.153Z,19.29
2018-10-09T13:00:44.221Z,19.54
2018-10-09T13:03:16.272Z,19.18
2018-10-09T13:05:48.372Z,19.71
2018-10-09T13:08:20.405Z,19.36
2018-10-09T13:10:52.460Z,19.75
2018-10-09T13:13:24.532Z,19.16
2018-10-09T13:15:56.599Z,18.96
2018-10-09T13:18:28.729Z,19.31
2018-10-09T13:21:00.818Z,19.24
2018-10-09T13:23:32.840Z,19.13
2018-10-09T13:26:04.982Z,20.11
2018-10-09T13:28:37.042Z,20.87
2018-10-09T13:31:09.106Z,20.24
2018-10-09T13:33:41.122Z,19.43
2018-10-09T13:36:13.161Z,19.44
2018-10-09T13:38:45.319Z,20.09
2018-10-09T13:41:17.340Z,20.35
2018-10-09T13:43:49.373Z,21.53
2018-10-09T13:46:21.405Z,20.83
2018-10-09T13:48:53.480Z,22.20
2018-10-09T13:51:25.548Z,22.89
2018-10-09T13:53:57.696Z,22.71
2018-10-09T13:56:29.892Z,22.45
2018-10-09T13:59:01.946Z,21.74
2018-10-09T14:01:34.027Z,21.91
2018-10-09T14:04:06.208Z,21.53
2018-10-09T14:06:38.253Z,22.66
2018-10-09T14:09:11.098Z,23.10
2018-10-09T14:11:43.127Z,22.11
2018-10-09T14:14:15.144Z,22.52
2018-10-09T14:16:47.217Z,23.83
2018-10-09T14:19:19.350Z,23.51
2018-10-09T14:21:51.421Z,24.10
2018-10-09T14:24:23.456Z,24.88
2018-10-09T14:26:55.497Z,24.01
2018-10-09T14:29:27.543Z,24.16
2018-10-09T14:31:59.624Z,23.44
2018-10-09T14:34:31.766Z,22.35
2018-10-09T14:37:04.784Z,21.25
2018-10-09T14:39:36.908Z,20.56
2018-10-09T14:42:09.005Z,20.87
2018-10-09T14:44:41.124Z,20.81
2018-10-09T14:47:13.488Z,20.62
2018-10-09T14:49:45.551Z,20.60
2018-10-09T14:52:17.645Z,20.20
2018-10-09T14:54:49.668Z,19.56
2018-10-09T14:57:21.787Z,19.41
2018-10-09T14:59:53.869Z,19.65
2018-10-09T15:02:25.972Z,19.75
2018-10-09T15:04:57.988Z,19.73
2018-10-09T15:07:30.013Z,19.82
2018-10-09T15:10:02.123Z,19.78
2018-10-09T15:12:34.181Z,19.80
2018-10-09T15:15:06.255Z,19.27
2018-10-09T15:17:38.412Z,19.25
2018-10-09T15:20:11.497Z,19.06
2018-10-09T15:22:43.571Z,18.91
2018-10-09T15:25:15.635Z,18.75
2018-10-09T15:27:47.643Z,18.62
2018-10-09T15:30:19.762Z,18.83
2018-10-09T15:32:52.023Z,18.69
2018-10-09T15:35:24.111Z,18.54
2018-10-09T15:37:56.179Z,18.43
2018-10-09T15:40:28.196Z,18.36
2018-10-09T15:43:00.282Z,18.29
2018-10-09T15:45:32.411Z,18.21
2018-10-09T15:48:04.488Z,18.09
2018-10-09T15:50:36.523Z,18.02
2018-10-09T15:53:08.581Z,17.90
2018-10-09T15:55:40.633Z,17.79
2018-10-09T15:58:12.654Z,17.72
2018-10-09T16:00:44.688Z,17.55
2018-10-09T16:03:16.683Z,17.39
2018-10-09T16:05:48.691Z,17.21
2018-10-09T16:08:20.716Z,17.03
2018-10-09T16:10:52.772Z,16.88
2018-10-09T16:13:24.877Z,16.96
2018-10-09T16:15:56.950Z,16.83
2018-10-09T16:18:28.988Z,16.67
2018-10-09T16:21:01.032Z,16.45
2018-10-09T16:23:33.090Z,16.25
2018-10-09T16:26:05.326Z,16.05
2018-10-09T16:28:37.506Z,15.80
2018-10-09T16:31:09.535Z,15.67
2018-10-09T16:33:41.596Z,15.51
2018-10-09T16:36:13.650Z,15.33
2018-10-09T16:38:45.674Z,15.21
2018-10-09T16:41:17.744Z,15.01
2018-10-09T16:43:49.813Z,14.94
2018-10-09T16:46:21.851Z,14.86
2018-10-09T16:48:53.897Z,14.83
2018-10-09T16:51:25.975Z,14.76
2018-10-09T16:53:58.020Z,14.77
2018-10-09T16:56:30.035Z,14.77
2018-10-09T16:59:02.090Z,14.62
2018-10-09T17:01:34.159Z,14.60
2018-10-09T17:04:06.184Z,14.49
2018-10-09T17:06:38.407Z,14.39
2018-10-09T17:09:11.104Z,14.26
2018-10-09T17:11:43.103Z,14.29
2018-10-09T17:14:15.099Z,14.29
2018-10-09T17:16:47.124Z,14.25
2018-10-09T17:19:19.145Z,14.19
2018-10-09T17:21:51.147Z,14.12
2018-10-09T17:24:23.159Z,14.05
2018-10-09T17:26:55.288Z,13.95
2018-10-09T17:29:27.248Z,13.92
2018-10-09T17:31:59.292Z,13.88
2018-10-09T17:34:31.404Z,13.80
2018-10-09T17:37:03.417Z,13.77
2018-10-09T17:39:35.464Z,13.75
2018-10-09T17:42:07.591Z,13.67
2018-10-09T17:44:39.651Z,13.63
2018-10-09T17:47:11.842Z,13.54
2018-10-09T17:49:43.925Z,13.41
2018-10-09T17:52:16.000Z,13.30
2018-10-09T17:54:48.057Z,13.36
2018-10-09T17:57:20.082Z,13.38
2018-10-09T17:59:52.107Z,13.37
2018-10-09T18:02:24.187Z,13.31
2018-10-09T18:04:56.232Z,13.11
2018-10-09T18:07:28.239Z,13.05
2018-10-09T18:10:00.260Z,13.16
2018-10-09T18:12:32.284Z,13.19
2018-10-09T18:15:05.646Z,13.28
2018-10-09T18:17:37.668Z,13.26
2018-10-09T18:20:09.911Z,13.23
2018-10-09T18:22:42.200Z,13.22
2018-10-09T18:25:14.363Z,13.38
2018-10-09T18:27:46.384Z,13.36
2018-10-09T18:30:18.494Z,13.54
2018-10-09T18:32:50.746Z,13.49
2018-10-09T18:35:22.588Z,13.45
2018-10-09T18:37:54.646Z,13.52
2018-10-09T18:40:26.737Z,13.49
2018-10-09T18:42:58.720Z,13.33
2018-10-09T18:45:30.716Z,13.30
2018-10-09T18:48:02.759Z,13.24
2018-10-09T18:50:34.892Z,13.21
2018-10-09T18:53:06.952Z,13.08
2018-10-09T18:55:39.122Z,13.04
2018-10-09T18:58:12.770Z,13.01
2018-10-09T19:00:45.402Z,12.93
2018-10-09T19:03:17.503Z,12.86
2018-10-09T19:05:49.609Z,12.82
2018-10-09T19:08:21.628Z,12.78
2018-10-09T19:10:53.747Z,12.69
2018-10-09T19:13:25.826Z,12.53
2018-10-09T19:15:57.959Z,12.51
2018-10-09T19:18:30.071Z,12.42
2018-10-09T19:21:02.262Z,12.49
2018-10-09T19:23:34.375Z,12.36
2018-10-09T19:26:06.613Z,12.17
2018-10-09T19:28:38.776Z,12.39
2018-10-09T19:31:10.958Z,12.38
2018-10-09T19:33:43.098Z,12.44
2018-10-09T19:36:15.333Z,12.43
2018-10-09T19:38:47.581Z,12.41
2018-10-09T19:41:19.920Z,12.41
2018-10-09T19:43:52.191Z,12.32
2018-10-09T19:46:24.353Z,12.40
2018-10-09T19:48:56.587Z,12.47
2018-10-09T19:51:29.216Z,12.41
2018-10-09T19:54:01.315Z,12.33
2018-10-09T19:56:33.584Z,12.19
2018-10-09T19:59:05.958Z,12.24
2018-10-09T20:01:39.227Z,12.17
2018-10-09T20:04:11.378Z,12.09
2018-10-09T20:06:43.748Z,12.00
2018-10-09T20:09:16.031Z,11.84
2018-10-09T20:11:48.293Z,11.91
2018-10-09T20:14:21.446Z,11.81
2018-10-09T20:16:53.726Z,11.80
2018-10-09T20:19:25.967Z,11.76
2018-10-09T20:21:58.351Z,11.65
2018-10-09T20:24:30.624Z,11.51
2018-10-09T20:27:02.952Z,11.45
2018-10-09T20:29:35.280Z,11.41
2018-10-09T20:32:07.567Z,11.38
2018-10-09T20:34:40.132Z,11.24
2018-10-09T20:37:12.334Z,11.19
2018-10-09T20:39:44.668Z,11.15
2018-10-09T20:42:16.881Z,11.09
2018-10-09T20:44:49.135Z,10.99
2018-10-09T20:47:26.995Z,10.97
2018-10-09T20:49:59.296Z,10.93
2018-10-09T20:52:31.720Z,10.84
2018-10-09T20:55:04.100Z,10.73
2018-10-09T20:57:36.630Z,10.78
2018-10-09T21:00:10.068Z,10.72
2018-10-09T21:02:42.837Z,10.69
2018-10-09T21:05:15.216Z,10.63
2018-10-09T21:07:47.532Z,10.54
2018-10-09T21:10:19.852Z,10.55
2018-10-09T21:12:52.027Z,10.53
2018-10-09T21:15:24.363Z,10.45
2018-10-09T21:17:56.657Z,10.39
2018-10-09T21:20:28.884Z,10.40
2018-10-09T21:23:01.188Z,10.42
2018-10-09T21:25:33.527Z,10.40
2018-10-09T21:28:06.013Z,10.42
2018-10-09T21:30:38.333Z,10.36
2018-10-09T21:33:10.588Z,10.34
2018-10-09T21:35:42.756Z,10.28
2018-10-09T21:38:15.126Z,10.28
2018-10-09T21:40:47.782Z,10.36
2018-10-09T21:43:20.070Z,10.40
2018-10-09T21:45:52.280Z,10.36
2018-10-09T21:48:24.616Z,10.27
2018-10-09T21:50:56.919Z,10.32
2018-10-09T21:53:29.119Z,10.36
2018-10-09T21:56:01.310Z,10.37
2018-10-09T21:58:33.592Z,10.34
2018-10-09T22:01:10.791Z,10.24
2018-10-09T22:03:43.025Z,10.22
2018-10-09T22:06:15.392Z,10.21
2018-10-09T22:08:47.568Z,10.19
2018-10-09T22:11:19.845Z,10.23
2018-10-09T22:13:52.145Z,10.19
2018-10-09T22:16:24.488Z,10.13
2018-10-09T22:18:56.697Z,10.08
2018-10-09T22:21:29.017Z,10.01
2018-10-09T22:24:01.255Z,9.96
2018-10-09T22:26:33.542Z,9.96
2018-10-09T22:29:05.780Z,9.93
2018-10-09T22:31:38.096Z,9.94
2018-10-09T22:34:10.297Z,9.89
2018-10-09T22:36:42.605Z,9.74
2018-10-09T22:39:14.759Z,9.66
2018-10-09T22:41:47.016Z,9.67
2018-10-09T22:44:19.268Z,9.65
2018-10-09T22:46:51.552Z,9.73
2018-10-09T22:49:23.757Z,9.70
2018-10-09T22:51:56.031Z,9.58
2018-10-09T22:54:28.217Z,9.55
2018-10-09T22:57:00.542Z,9.53
2018-10-09T22:59:32.844Z,9.47
2018-10-09T23:02:05.043Z,9.37
2018-10-09T23:04:37.390Z,9.30
2018-10-09T23:07:09.652Z,9.34
2018-10-09T23:09:41.820Z,9.25
2018-10-09T23:12:14.119Z,9.36
2018-10-09T23:14:46.418Z,9.39
2018-10-09T23:17:18.712Z,9.35
2018-10-09T23:19:50.934Z,9.51
2018-10-09T23:22:23.582Z,9.38
2018-10-09T23:24:55.787Z,9.29
2018-10-09T23:27:28.233Z,9.34
2018-10-09T23:30:00.401Z,9.37
2018-10-09T23:32:32.668Z,9.32
2018-10-09T23:35:05.001Z,9.26
2018-10-09T23:37:37.195Z,9.26
2018-10-09T23:40:09.451Z,9.36
2018-10-09T23:42:41.589Z,9.40
2018-10-09T23:45:13.871Z,9.40
2018-10-09T23:47:45.977Z,9.40
2018-10-09T23:50:18.131Z,9.53
2018-10-09T23:52:50.315Z,9.42
2018-10-09T23:55:22.503Z,9.40
2018-10-09T23:57:54.605Z,9.43
